createdAt,value
2022-10-17T00:05:29.476Z,22.00
2022-10-17T00:19:29.459Z,20.70
2022-10-17T00:33:29.494Z,19.90
2022-10-17T00:47:29.595Z,20.20
2022-10-17T01:01:29.670Z,19.70
2022-10-17T01:15:29.622Z,18.30
2022-10-17T01:29:29.628Z,18.70
2022-10-17T01:43:29.637Z,17.70
2022-10-17T01:57:29.784Z,17.80
2022-10-17T02:11:29.777Z,17.40
2022-10-17T02:25:29.794Z,16.80
2022-10-17T02:39:29.762Z,16.65
2022-10-17T02:53:29.767Z,16.50
2022-10-17T03:07:29.789Z,16.60
2022-10-17T03:21:29.849Z,15.80
2022-10-17T03:35:29.781Z,15.70
2022-10-17T03:49:29.785Z,15.60
2022-10-17T04:03:29.770Z,15.40
2022-10-17T04:17:31.536Z,14.80
2022-10-17T04:31:29.790Z,15.40
2022-10-17T04:45:29.782Z,15.40
2022-10-17T04:59:29.785Z,14.60
2022-10-17T05:13:29.801Z,14.10
2022-10-17T05:28:29.835Z,14.40
2022-10-17T05:43:29.802Z,17.00
2022-10-17T05:58:49.092Z,23.80
2022-10-17T06:13:29.809Z,21.10
2022-10-17T06:28:29.899Z,20.00
2022-10-17T06:43:29.904Z,17.10
2022-10-17T06:58:29.949Z,16.50
2022-10-17T07:13:29.979Z,16.10
2022-10-17T07:28:29.976Z,15.30
2022-10-17T07:43:29.987Z,14.10
2022-10-17T07:58:30.024Z,14.90
2022-10-17T08:13:29.994Z,13.10
2022-10-17T08:28:30.061Z,12.90
2022-10-17T08:43:32.225Z,12.60
2022-10-17T08:58:30.034Z,12.50
2022-10-17T09:13:30.160Z,11.90
2022-10-17T09:28:30.140Z,15.70
2022-10-17T09:43:30.151Z,13.90
2022-10-17T09:58:30.127Z,13.00
2022-10-17T10:13:30.132Z,11.50
2022-10-17T10:28:30.215Z,11.50
2022-10-17T10:44:46.077Z,11.30
2022-10-17T10:58:45.405Z,11.10
2022-10-17T11:13:46.015Z,10.90
2022-10-17T11:28:45.658Z,11.30
2022-10-17T11:44:46.086Z,10.30
2022-10-17T11:59:46.169Z,11.50
2022-10-17T12:14:46.193Z,11.80
2022-10-17T12:29:46.235Z,12.20
2022-10-17T12:44:47.897Z,12.20
2022-10-17T12:59:46.363Z,13.60
2022-10-17T13:14:46.348Z,13.20
2022-10-17T13:29:46.499Z,14.60
2022-10-17T13:44:46.477Z,13.50
2022-10-17T13:59:46.790Z,14.50
2022-10-17T14:15:09.096Z,15.50
2022-10-17T14:29:46.726Z,17.20
2022-10-17T14:45:47.035Z,19.00
2022-10-17T15:00:46.905Z,18.80
2022-10-17T15:15:46.925Z,19.80
2022-10-17T15:30:46.924Z,18.80
2022-10-17T15:45:46.930Z,19.20
2022-10-17T16:00:47.064Z,16.40
2022-10-17T16:15:47.017Z,17.80
2022-10-17T16:30:47.084Z,17.60
2022-10-17T16:45:47.122Z,17.20
2022-10-17T17:00:47.160Z,16.40
2022-10-17T17:14:47.109Z,17.20
2022-10-17T17:28:47.143Z,16.80
2022-10-17T17:42:47.163Z,15.85
2022-10-17T17:56:47.103Z,16.10
2022-10-17T18:10:47.241Z,16.10
2022-10-17T18:24:47.182Z,15.60
2022-10-17T18:38:47.187Z,15.30
2022-10-17T18:52:47.262Z,15.10
2022-10-17T19:06:47.267Z,14.30
2022-10-17T19:20:47.227Z,13.40
2022-10-17T19:34:47.249Z,13.90
2022-10-17T19:48:47.340Z,13.80
2022-10-17T20:02:47.338Z,12.80
2022-10-17T20:16:47.305Z,12.70
2022-10-17T20:30:47.371Z,12.00
2022-10-17T20:44:47.385Z,12.00
2022-10-17T20:58:47.402Z,11.60
2022-10-17T21:12:53.748Z,11.30
2022-10-17T21:26:47.406Z,11.20
2022-10-17T21:40:47.773Z,11.30
2022-10-17T21:54:47.443Z,11.20
2022-10-17T22:08:47.447Z,11.00
2022-10-17T22:22:47.725Z,11.00
2022-10-17T22:36:47.656Z,11.20
2022-10-17T22:50:47.558Z,10.70
2022-10-17T23:04:47.635Z,15.90
2022-10-17T23:18:47.573Z,15.20
2022-10-17T23:32:47.651Z,16.10
2022-10-17T23:46:47.648Z,16.45
